createdAt,value
2018-09-13T00:10:19.028Z,94150.28
2018-09-13T00:25:22.877Z,94143.23
2018-09-13T00:40:26.843Z,94131.91
2018-09-13T00:55:30.720Z,94125.64
2018-09-13T01:10:34.505Z,94112.78
2018-09-13T01:25:38.319Z,94104.30
2018-09-13T01:40:42.149Z,94098.27
2018-09-13T01:55:45.972Z,94096.63
2018-09-13T02:10:49.783Z,94084.41
2018-09-13T02:25:53.576Z,94079.36
2018-09-13T02:40:57.473Z,94059.93
2018-09-13T02:56:01.251Z,94054.73
2018-09-13T03:11:05.870Z,94034.05
2018-09-13T03:26:09.926Z,94053.00
2018-09-13T03:41:13.757Z,94058.36
2018-09-13T03:56:17.626Z,94076.30
2018-09-13T04:11:21.449Z,94069.05
2018-09-13T04:26:25.288Z,94066.05
2018-09-13T04:41:29.541Z,94066.94
2018-09-13T04:56:33.414Z,94054.03
2018-09-13T05:11:38.109Z,94075.03
2018-09-13T05:26:41.928Z,94065.09
2018-09-13T05:41:45.721Z,94042.16
2018-09-13T05:56:49.538Z,94035.70
2018-09-13T06:11:53.301Z,94048.11
2018-09-13T06:26:57.272Z,94040.75
2018-09-13T06:42:01.112Z,94036.37
2018-09-13T06:57:04.922Z,94045.42
2018-09-13T07:12:08.721Z,94039.04
2018-09-13T07:27:12.501Z,94045.57
2018-09-13T07:42:16.336Z,94047.31
2018-09-13T07:57:20.168Z,94019.23
2018-09-13T08:12:24.000Z,94024.65
2018-09-13T08:27:27.869Z,94035.04
2018-09-13T08:42:31.663Z,94037.09
2018-09-13T08:57:35.447Z,94032.78
2018-09-13T09:12:39.238Z,93991.36
2018-09-13T09:27:43.060Z,93976.12
2018-09-13T09:42:46.865Z,93959.05
2018-09-13T09:57:51.080Z,93973.42
2018-09-13T10:12:54.907Z,93964.56
2018-09-13T10:28:03.863Z,93944.88
2018-09-13T10:43:14.687Z,93915.66
2018-09-13T10:58:18.604Z,93914.89
2018-09-13T11:14:27.567Z,93897.38
2018-09-13T11:29:31.496Z,93868.11
2018-09-13T11:44:35.350Z,93834.48
2018-09-13T11:59:39.173Z,93808.53
2018-09-13T12:14:43.004Z,93796.30
2018-09-13T12:29:46.813Z,93795.52
2018-09-13T12:44:50.731Z,93797.20
2018-09-13T12:59:54.550Z,93822.45
2018-09-13T13:14:58.423Z,93808.92
2018-09-13T13:30:02.281Z,93791.02
2018-09-13T13:45:06.224Z,93786.19
2018-09-13T14:00:10.931Z,93770.34
2018-09-13T14:15:14.828Z,93762.55
2018-09-13T14:30:18.681Z,93765.08
2018-09-13T14:45:22.617Z,93770.11
2018-09-13T15:00:26.473Z,93753.14
2018-09-13T15:15:32.126Z,93751.81
2018-09-13T15:30:35.987Z,93766.73
2018-09-13T15:45:39.878Z,93774.52
2018-09-13T16:00:43.747Z,93774.77
2018-09-13T16:15:47.659Z,93781.60
2018-09-13T16:30:51.558Z,93785.97
2018-09-13T16:45:55.619Z,93792.22
2018-09-13T17:00:59.985Z,93798.88
2018-09-13T17:16:03.946Z,93812.71
2018-09-13T17:31:07.874Z,93832.22
2018-09-13T17:46:11.903Z,93832.39
2018-09-13T18:01:15.993Z,93827.95
2018-09-13T18:16:20.097Z,93815.03
2018-09-13T18:31:24.293Z,93796.17
2018-09-13T18:46:28.253Z,93791.59
2018-09-13T19:01:32.163Z,93805.71
2018-09-13T19:16:36.081Z,93790.94
2018-09-13T19:31:40.297Z,93785.20
2018-09-13T19:46:44.583Z,93791.58
2018-09-13T20:01:48.980Z,93783.08
2018-09-13T20:16:53.251Z,93798.70
2018-09-13T20:31:57.489Z,93814.41
2018-09-13T20:47:01.994Z,93811.63
2018-09-13T21:02:05.746Z,93824.40
2018-09-13T21:17:10.078Z,93808.48
2018-09-13T21:32:14.226Z,93808.80
2018-09-13T21:47:18.534Z,93790.58
2018-09-13T22:02:22.704Z,93788.38
2018-09-13T22:17:26.894Z,93798.11
2018-09-13T22:32:31.111Z,93800.61
2018-09-13T22:47:35.386Z,93813.16
2018-09-13T23:02:44.622Z,93802.77
2018-09-13T23:17:48.758Z,93805.36
2018-09-13T23:32:52.946Z,93832.73
2018-09-13T23:47:57.326Z,93827.30
